^^
Datos históricos de la estación: Murcia-Puente Tocinos
Diario Informe para Agosto 10, 2021 Unidades:  Métrico    Ingés   Ambas
Diario Semanal Mensual Anual
  Máxima: Mínima: Promedio:
Temperatura: 8.3 °C 5.2 °C 6.5 °C
Punto de rocio: 5.4 °C 3.5 °C 4.5 °C
Humedad: 94% 80% 87%
Velocidad viento: 9.5km/h 2.2km/h 5.3km/h
Racha viento: 19.3km/h - -
Viento- - SO
Presión: 1015.0 hPa 1005.8 hPa -
Precipitación: 1.3 mm    
 
 
Tabla de datos para Agosto 10, 2021
Hora Temperatura Punto de rocio Presión Viento Velocidad viento Racha viento Humedad Intensidad lluvia(por hora) Nubes
00:04 6.8 °C 4.4 °C 1006.0 hPa OSO 3.9 km/h 7.4 km/h 85% 0.0 mm
00:09 6.7 °C 4.3 °C 1006.0 hPa SSO 3.5 km/h 8 km/h 85% 0.0 mm
00:14 6.7 °C 4.5 °C 1006.0 hPa Sur 3.2 km/h 8 km/h 85.9% 0.0 mm
00:19 6.7 °C 4.5 °C 1006.0 hPa SSE 4.2 km/h 7.6 km/h 86% 0.0 mm
00:24 6.6 °C 4.4 °C 1006.0 hPa SSE 4.7 km/h 8.4 km/h 86% 0.0 mm
00:29 6.6 °C 4.4 °C 1006.0 hPa SSE 4.9 km/h 8 km/h 86% 0.0 mm
00:34 6.5 °C 4.4 °C 1006.0 hPa SSE 5 km/h 7.6 km/h 86.3% 0.0 mm
00:39 6.5 °C 4.5 °C 1006.1 hPa Sur 4.8 km/h 9.3 km/h 87% 0.0 mm
00:44 6.5 °C 4.5 °C 1006.1 hPa Sur 4.7 km/h 9.7 km/h 87% 0.0 mm
00:49 6.5 °C 4.5 °C 1006.1 hPa SSO 5.8 km/h 11.1 km/h 87% 0.0 mm
00:54 6.5 °C 4.5 °C 1006.2 hPa SSO 6.5 km/h 11.3 km/h 86.8% 0.0 mm
00:59 6.5 °C 4.3 °C 1006.2 hPa SSO 6.8 km/h 10 km/h 86% 0.0 mm
01:04 6.5 °C 4.3 °C 1006.2 hPa SSO 6.9 km/h 9.7 km/h 86% 0.0 mm
01:09 6.5 °C 4.3 °C 1006.2 hPa SSO 6.2 km/h 9.7 km/h 86% 0.0 mm
01:14 6.5 °C 4.3 °C 1006.1 hPa SSO 5.8 km/h 6.4 km/h 86% 0.0 mm
01:19 6.4 °C 4.2 °C 1006.1 hPa SSO 4.1 km/h 8 km/h 86% 0.0 mm
01:24 6.4 °C 4.2 °C 1006.1 hPa SSO 3.2 km/h 8 km/h 86% 0.0 mm
01:29 6.4 °C 4.2 °C 1006.0 hPa SSO 3.6 km/h 8 km/h 86% 0.0 mm
01:34 6.3 °C 4.1 °C 1006.0 hPa Sur 3.9 km/h 9.3 km/h 86% 0.0 mm
01:39 6.3 °C 4.3 °C 1006.0 hPa Sur 4.5 km/h 9.7 km/h 87% 0.0 mm
01:44 6.2 °C 4.2 °C 1005.9 hPa SSE 5 km/h 9.3 km/h 87% 0.0 mm
01:49 6.2 °C 4.2 °C 1005.9 hPa Sur 4.8 km/h 9.7 km/h 87% 0.0 mm
01:54 6.1 °C 4.2 °C 1005.9 hPa Sur 4.7 km/h 9.5 km/h 87.3% 0.0 mm
01:59 6.1 °C 4.3 °C 1005.9 hPa Sur 5.4 km/h 9.7 km/h 88% 0.0 mm
02:04 6.1 °C 4.3 °C 1005.9 hPa SSO 5.8 km/h 10 km/h 88% 0.0 mm
02:09 6.1 °C 4.3 °C 1005.9 hPa SSO 6.5 km/h 10 km/h 88% 0.0 mm
02:14 6.1 °C 4.3 °C 1005.8 hPa SSO 6.9 km/h 9.7 km/h 88% 0.0 mm
02:19 6.1 °C 4.3 °C 1005.8 hPa SO 6.2 km/h 11.1 km/h 88% 0.0 mm
02:24 6.1 °C 4.3 °C 1006.0 hPa SO 5.8 km/h 11.3 km/h 88% 0.0 mm
02:29 6.1 °C 4.3 °C 1006.0 hPa OSO 6.5 km/h 11.3 km/h 88% 0.0 mm
02:34 6 °C 4.2 °C 1006.0 hPa SO 6.9 km/h 10 km/h 88% 0.0 mm
02:39 5.9 °C 4.1 °C 1006.2 hPa SSO 6.3 km/h 10 km/h 88% 0.0 mm
02:44 5.9 °C 4.1 °C 1006.2 hPa SSO 5.8 km/h 9.7 km/h 88% 0.0 mm
02:49 5.9 °C 4.1 °C 1006.2 hPa SSO 6.2 km/h 9.7 km/h 88% 0.0 mm
02:54 5.9 °C 4.1 °C 1006.2 hPa Sur 6.5 km/h 9.7 km/h 88% 0.0 mm
02:59 5.9 °C 4.1 °C 1006.1 hPa SSE 6 km/h 9.7 km/h 88% 0.0 mm
03:04 5.9 °C 4.1 °C 1006.1 hPa Sur 5.8 km/h 10 km/h 88% 0.0 mm
03:09 5.8 °C 3.9 °C 1006.1 hPa Sur 6.2 km/h 11.1 km/h 88% 0.0 mm
03:14 5.7 °C 3.9 °C 1006.0 hPa Sur 6.5 km/h 11.3 km/h 88% 0.0 mm
03:19 5.7 °C 3.9 °C 1006.0 hPa SSO 6.8 km/h 11.1 km/h 88% 0.0 mm
03:24 5.7 °C 3.9 °C 1006.0 hPa SO 6.9 km/h 11.3 km/h 88% 0.0 mm
03:29 5.7 °C 3.9 °C 1005.8 hPa SO 5.5 km/h 8 km/h 88% 0.0 mm
03:34 5.7 °C 3.9 °C 1005.8 hPa SSO 4.7 km/h 11.9 km/h 88% 0.0 mm
03:39 5.7 °C 3.9 °C 1006.2 hPa Sur 6.1 km/h 11.3 km/h 88% 0.0 mm
03:44 5.7 °C 3.9 °C 1006.2 hPa SSO 6.9 km/h 11.3 km/h 88% 0.0 mm
03:49 5.7 °C 3.9 °C 1006.2 hPa Sur 7.4 km/h 11.9 km/h 88% 0.0 mm
03:54 5.8 °C 3.9 °C 1006.2 hPa SSO 7.6 km/h 11.3 km/h 88% 0.0 mm
03:59 5.8 °C 3.8 °C 1006.2 hPa SSO 6.4 km/h 8 km/h 87% 0.0 mm
04:04 5.8 °C 3.8 °C 1006.2 hPa SSO 5.8 km/h 8 km/h 87% 0.0 mm
04:09 5.8 °C 3.8 °C 1006.3 hPa Sur 5.1 km/h 8 km/h 87% 0.0 mm
04:14 5.8 °C 3.8 °C 1006.3 hPa SSO 4.7 km/h 9.5 km/h 87% 0.0 mm
04:19 5.8 °C 3.8 °C 1006.3 hPa SSO 4.9 km/h 9.7 km/h 87% 0.0 mm
04:24 5.8 °C 3.8 °C 1006.3 hPa SO 5 km/h 8.7 km/h 87% 0.0 mm
04:29 5.8 °C 3.8 °C 1006.2 hPa SO 5 km/h 10 km/h 87% 0.0 mm
04:34 5.8 °C 3.8 °C 1006.2 hPa OSO 5 km/h 9.7 km/h 87% 0.0 mm
04:39 5.8 °C 3.8 °C 1006.2 hPa Oeste 5 km/h 9.7 km/h 87% 0.0 mm
04:44 5.8 °C 3.6 °C 1006.2 hPa SO 5 km/h 10 km/h 86.1% 0.0 mm
04:49 5.7 °C 3.6 °C 1006.2 hPa OSO 5 km/h 9.7 km/h 86% 0.0 mm
04:54 5.7 °C 3.6 °C 1006.2 hPa SO 5 km/h 9.3 km/h 86.2% 0.0 mm
04:59 5.7 °C 3.7 °C 1006.1 hPa SO 5.5 km/h 10 km/h 86.7% 0.0 mm
05:04 5.7 °C 3.6 °C 1006.1 hPa SO 5.8 km/h 11.9 km/h 86.6% 0.0 mm
05:09 5.7 °C 3.5 °C 1006.1 hPa SO 6.2 km/h 11.3 km/h 86% 0.0 mm
05:14 5.7 °C 3.6 °C 1006.0 hPa SO 6.5 km/h 9.7 km/h 86% 0.0 mm
05:19 5.7 °C 3.6 °C 1006.0 hPa SSO 6 km/h 13 km/h 86% 0.0 mm
05:24 5.7 °C 3.6 °C 1006.3 hPa SO 5.8 km/h 13 km/h 86% 0.0 mm
05:29 5.7 °C 3.6 °C 1006.3 hPa SSO 6.9 km/h 14.8 km/h 86% 0.0 mm
05:34 5.7 °C 3.6 °C 1006.3 hPa SO 7.6 km/h 14.5 km/h 86.2% 0.3 mm
05:39 5.7 °C 3.7 °C 1006.3 hPa SO 8.3 km/h 14.5 km/h 87% 0.5 mm
05:44 5.6 °C 3.8 °C 1006.3 hPa SO 8.7 km/h 13 km/h 88% 0.8 mm
05:49 5.6 °C 3.8 °C 1006.3 hPa OSO 6.9 km/h 12.9 km/h 88.2% 0.8 mm
05:54 5.4 °C 3.7 °C 1006.3 hPa ONO 5.8 km/h 9.7 km/h 89% 1.0 mm
05:59 5.4 °C 3.7 °C 1006.1 hPa SO 5 km/h 8 km/h 89% 1.0 mm
06:04 5.3 °C 3.8 °C 1006.1 hPa SSO 4.7 km/h 8 km/h 90% 1.3 mm
06:09 5.3 °C 3.7 °C 1006.2 hPa SO 4.6 km/h 8 km/h 90% 1.3 mm
06:14 5.2 °C 3.8 °C 1006.2 hPa SSO 4.7 km/h 8.4 km/h 90.6% 1.3 mm
06:19 5.2 °C 3.8 °C 1006.2 hPa Sur 4.9 km/h 9.3 km/h 91% 1.3 mm
06:24 5.2 °C 3.9 °C 1006.5 hPa SSO 5 km/h 9.7 km/h 91.1% 1.3 mm
06:29 5.2 °C 4 °C 1006.5 hPa SO 5 km/h 9.3 km/h 92% 1.3 mm
06:34 5.3 °C 4.1 °C 1006.5 hPa SO 5 km/h 10.3 km/h 92% 1.0 mm
06:39 5.3 °C 4.1 °C 1006.5 hPa SO 5.9 km/h 11.3 km/h 92% 1.0 mm
06:44 5.3 °C 4.1 °C 1006.5 hPa SO 6.5 km/h 13 km/h 92% 0.8 mm
06:49 5.3 °C 4.1 °C 1006.5 hPa SO 6.8 km/h 13 km/h 92% 0.5 mm
06:54 5.3 °C 4.1 °C 1006.8 hPa SO 6.9 km/h 12.9 km/h 92% 0.5 mm
06:59 5.2 °C 4 °C 1006.8 hPa SO 6.2 km/h 11.3 km/h 92% 0.3 mm
07:04 5.2 °C 4 °C 1006.8 hPa SO 5.8 km/h 11.1 km/h 92% 0.3 mm
07:09 5.2 °C 4.2 °C 1006.9 hPa SO 5.8 km/h 11.3 km/h 92.9% 0.0 mm
07:14 5.2 °C 4.2 °C 1006.9 hPa SO 5.8 km/h 8 km/h 93% 0.0 mm
07:19 5.2 °C 4.2 °C 1006.9 hPa SO 4.6 km/h 9.3 km/h 93% 0.0 mm
07:24 5.2 °C 4.2 °C 1007.1 hPa OSO 3.9 km/h 9.7 km/h 93% 0.0 mm
07:29 5.2 °C 4.2 °C 1007.1 hPa Oeste 4.4 km/h 8 km/h 93% 0.0 mm
07:34 5.3 °C 4.3 °C 1007.1 hPa SO 4.7 km/h 8.4 km/h 93% 0.0 mm
07:39 5.3 °C 4.3 °C 1007.4 hPa OSO 4.7 km/h 8 km/h 93% 0.0 mm
07:44 5.3 °C 4.3 °C 1007.4 hPa OSO 4.7 km/h 8.4 km/h 93% 0.0 mm
07:49 5.3 °C 4.3 °C 1007.4 hPa OSO 4.7 km/h 9.5 km/h 93% 0.0 mm
07:54 5.3 °C 4.3 °C 1007.6 hPa OSO 4.7 km/h 9.7 km/h 93% 0.0 mm
07:59 5.3 °C 4.3 °C 1007.6 hPa OSO 4.9 km/h 8 km/h 93% 0.0 mm
08:04 5.2 °C 4.2 °C 1007.6 hPa OSO 5 km/h 8.4 km/h 93% 0.0 mm
08:09 5.2 °C 4.2 °C 1007.7 hPa OSO 4.8 km/h 8 km/h 93% 0.0 mm
08:14 5.2 °C 4.2 °C 1007.7 hPa SO 4.7 km/h 8 km/h 93.4% 0.0 mm
08:19 5.3 °C 4.4 °C 1007.7 hPa SO 4.1 km/h 8 km/h 94% 0.0 mm
08:24 5.3 °C 4.4 °C 1007.9 hPa SO 3.9 km/h 8 km/h 94% 0.0 mm
08:29 5.3 °C 4.4 °C 1007.9 hPa OSO 3.9 km/h 7.4 km/h 94% 0.0 mm
08:34 5.3 °C 4.4 °C 1007.9 hPa Oeste 3.9 km/h 8 km/h 94% 0.0 mm
08:39 5.3 °C 4.4 °C 1008.1 hPa Oeste 3.4 km/h 8 km/h 94% 0.0 mm
08:44 5.3 °C 4.4 °C 1008.1 hPa Oeste 3.2 km/h 4.8 km/h 94% 0.0 mm
08:49 5.4 °C 4.5 °C 1008.1 hPa Oeste 3 km/h 5.6 km/h 94% 0.0 mm
08:54 5.4 °C 4.5 °C 1008.4 hPa Oeste 2.9 km/h 4.8 km/h 94% 0.0 mm
08:59 5.4 °C 4.5 °C 1008.4 hPa Oeste 2.9 km/h 5.8 km/h 94% 0.0 mm
09:04 5.4 °C 4.5 °C 1008.4 hPa NO 2.9 km/h 7.4 km/h 94% 0.0 mm
09:09 5.5 °C 4.6 °C 1008.5 hPa NO 3.1 km/h 8 km/h 94% 0.0 mm
09:14 5.4 °C 4.5 °C 1008.5 hPa NO 3.2 km/h 8 km/h 94% 0.0 mm
09:19 5.4 °C 4.5 °C 1008.5 hPa ONO 4.1 km/h 8 km/h 94% 0.0 mm
09:24 5.4 °C 4.5 °C 1008.8 hPa Oeste 4.7 km/h 8 km/h 94% 0.0 mm
09:29 5.3 °C 4.5 °C 1008.8 hPa Oeste 3.8 km/h 9.3 km/h 94% 0.0 mm
09:34 5.3 °C 4.4 °C 1008.8 hPa Oeste 3.2 km/h 9.5 km/h 94% 0.0 mm
09:39 5.4 °C 4.5 °C 1009.0 hPa ONO 4.3 km/h 9.7 km/h 94% 0.0 mm
09:44 5.4 °C 4.4 °C 1009.0 hPa Oeste 5 km/h 10 km/h 93.7% 0.0 mm
09:49 5.3 °C 4.3 °C 1009.0 hPa Oeste 5.5 km/h 9.7 km/h 93% 0.0 mm
09:54 5.4 °C 4.3 °C 1009.2 hPa Oeste 5.8 km/h 9.7 km/h 93% 0.0 mm
09:59 5.4 °C 4.4 °C 1009.2 hPa ONO 4.5 km/h 9.3 km/h 93% 0.0 mm
10:04 5.5 °C 4.3 °C 1009.2 hPa Oeste 3.9 km/h 11.9 km/h 92% 0.0 mm
10:09 5.4 °C 4.1 °C 1009.4 hPa Oeste 5.5 km/h 13 km/h 91.1% 0.0 mm
10:14 5.5 °C 4 °C 1009.4 hPa Oeste 6.5 km/h 12.9 km/h 90% 0.0 mm
10:19 5.6 °C 3.9 °C 1009.4 hPa Oeste 7.2 km/h 13 km/h 89% 0.0 mm
10:24 5.7 °C 4 °C 1010.0 hPa Oeste 7.6 km/h 12.9 km/h 88.8% 0.0 mm
10:29 5.7 °C 3.9 °C 1010.0 hPa Oeste 7.2 km/h 14.8 km/h 88% 0.0 mm
10:34 5.7 °C 3.9 °C 1010.0 hPa Oeste 6.9 km/h 14.5 km/h 88% 0.0 mm
10:39 5.7 °C 3.9 °C 1010.3 hPa Oeste 7.3 km/h 12.9 km/h 88% 0.0 mm
10:44 5.7 °C 3.7 °C 1010.3 hPa Oeste 7.6 km/h 11.9 km/h 87% 0.0 mm
10:49 5.8 °C 3.8 °C 1010.3 hPa ONO 7.6 km/h 11.3 km/h 87% 0.0 mm
10:54 5.8 °C 3.8 °C 1010.5 hPa Oeste 7.6 km/h 11.3 km/h 87% 0.0 mm
10:59 5.8 °C 3.8 °C 1010.5 hPa ONO 7.1 km/h 11.1 km/h 87% 0.0 mm
11:04 5.9 °C 3.9 °C 1010.5 hPa Oeste 6.9 km/h 9.7 km/h 87% 0.0 mm
11:09 6 °C 4 °C 1010.7 hPa OSO 5.4 km/h 9.7 km/h 87% 0.0 mm
11:14 6.1 °C 4.1 °C 1010.7 hPa OSO 4.7 km/h 8 km/h 87% 0.0 mm
11:19 6.1 °C 4.1 °C 1010.7 hPa ONO 4.1 km/h 8 km/h 87% 0.0 mm
11:24 6.2 °C 4.2 °C 1010.9 hPa Oeste 3.9 km/h 8 km/h 87% 0.0 mm
11:29 6.2 °C 4.2 °C 1010.9 hPa Oeste 3.9 km/h 8 km/h 87% 0.0 mm
11:34 6.3 °C 4.3 °C 1010.9 hPa Oeste 3.9 km/h 8 km/h 87% 0.0 mm
11:39 6.3 °C 4.3 °C 1011.0 hPa ONO 3.2 km/h 6.4 km/h 87% 0.0 mm
11:44 6.4 °C 4.2 °C 1011.0 hPa ONO 2.9 km/h 8.4 km/h 86.2% 0.0 mm
11:49 6.4 °C 4.2 °C 1011.0 hPa NO 3.5 km/h 8 km/h 86% 0.0 mm
11:54 6.4 °C 4.3 °C 1011.1 hPa Oeste 3.9 km/h 8.4 km/h 86% 0.0 mm
11:59 6.4 °C 4.2 °C 1011.1 hPa Oeste 4.4 km/h 8 km/h 86% 0.0 mm
12:04 6.4 °C 4.2 °C 1011.1 hPa Oeste 4.6 km/h 8.4 km/h 85.7% 0.0 mm
12:09 6.4 °C 4.2 °C 1011.1 hPa OSO 4.9 km/h 9.3 km/h 86% 0.0 mm
12:14 6.4 °C 4.2 °C 1011.1 hPa Oeste 5 km/h 9.7 km/h 86% 0.0 mm
12:19 6.4 °C 4.3 °C 1011.1 hPa Oeste 5 km/h 10.3 km/h 86.7% 0.0 mm
12:24 6.4 °C 4.4 °C 1011.1 hPa Oeste 5 km/h 11.3 km/h 87% 0.0 mm
12:29 6.4 °C 4.4 °C 1011.0 hPa OSO 5 km/h 8 km/h 87% 0.0 mm
12:34 6.4 °C 4.4 °C 1011.0 hPa OSO 5 km/h 8 km/h 87% 0.0 mm
12:39 6.5 °C 4.5 °C 1011.0 hPa OSO 3.8 km/h 7.4 km/h 87% 0.0 mm
12:44 6.6 °C 4.6 °C 1010.9 hPa Oeste 3.2 km/h 8 km/h 87% 0.0 mm
12:49 6.7 °C 4.6 °C 1010.9 hPa Oeste 3.7 km/h 8 km/h 86.6% 0.0 mm
12:54 6.7 °C 4.6 °C 1010.9 hPa OSO 3.9 km/h 9.3 km/h 86.2% 0.0 mm
12:59 6.8 °C 4.6 °C 1010.6 hPa Oeste 4.4 km/h 9.7 km/h 86% 0.0 mm
13:04 6.9 °C 4.6 °C 1010.6 hPa OSO 4.6 km/h 12.2 km/h 85.3% 0.0 mm
13:09 6.9 °C 4.4 °C 1010.6 hPa SO 6.1 km/h 13 km/h 84.2% 0.0 mm
13:14 6.9 °C 4.3 °C 1010.5 hPa Oeste 6.9 km/h 14.8 km/h 83.3% 0.0 mm
13:19 6.9 °C 4.2 °C 1010.5 hPa OSO 7.8 km/h 14 km/h 83% 0.0 mm
13:24 7 °C 4.4 °C 1010.5 hPa SO 8.4 km/h 14.8 km/h 83% 0.0 mm
13:29 7.1 °C 4.4 °C 1010.5 hPa SO 7.9 km/h 14 km/h 83% 0.0 mm
13:34 7.1 °C 4.3 °C 1010.5 hPa SO 7.6 km/h 14.8 km/h 82.4% 0.0 mm
13:39 7.1 °C 4.2 °C 1010.5 hPa OSO 8.8 km/h 18.5 km/h 82% 0.0 mm
13:44 7.2 °C 4.3 °C 1010.4 hPa SO 9.5 km/h 19.3 km/h 82.3% 0.0 mm
13:49 7.2 °C 4.4 °C 1010.4 hPa SO 9 km/h 16.7 km/h 82.3% 0.0 mm
13:54 7.2 °C 4.5 °C 1010.6 hPa SO 8.7 km/h 16.1 km/h 83% 0.0 mm
13:59 7.3 °C 4.6 °C 1010.6 hPa SSO 7.9 km/h 13.7 km/h 83% 0.0 mm
14:04 7.3 °C 4.6 °C 1010.6 hPa SO 7.6 km/h 14.5 km/h 83% 0.0 mm
14:09 7.3 °C 4.6 °C 1010.6 hPa OSO 7.6 km/h 14.8 km/h 83% 0.0 mm
14:14 7.3 °C 4.6 °C 1010.6 hPa OSO 7.6 km/h 13 km/h 83% 0.0 mm
14:19 7.3 °C 4.6 °C 1010.6 hPa OSO 7.6 km/h 14.8 km/h 83% 0.0 mm
14:24 7.2 °C 4.5 °C 1010.7 hPa SO 7.6 km/h 15.6 km/h 83% 0.0 mm
14:29 7.2 °C 4.5 °C 1010.7 hPa OSO 8.9 km/h 16.1 km/h 83% 0.0 mm
14:34 7.2 °C 4.5 °C 1010.7 hPa OSO 9.5 km/h 14.8 km/h 83% 0.0 mm
14:39 7.3 °C 4.6 °C 1010.7 hPa Oeste 8.8 km/h 10 km/h 83% 0.0 mm
14:44 7.3 °C 4.6 °C 1010.7 hPa OSO 8.4 km/h 9.7 km/h 83% 0.0 mm
14:49 7.3 °C 4.6 °C 1010.7 hPa SO 6.7 km/h 11.1 km/h 83% 0.0 mm
14:54 7.4 °C 4.6 °C 1010.7 hPa SO 5.8 km/h 11.3 km/h 82.7% 0.0 mm
14:59 7.4 °C 4.6 °C 1010.6 hPa SO 6.2 km/h 11.9 km/h 82.3% 0.0 mm
15:04 7.6 °C 4.7 °C 1010.6 hPa SO 6.5 km/h 13 km/h 82% 0.0 mm
15:09 7.6 °C 4.6 °C 1010.7 hPa OSO 7.7 km/h 16.7 km/h 81% 0.0 mm
15:14 7.6 °C 4.5 °C 1010.7 hPa SO 8.4 km/h 16.1 km/h 81% 0.0 mm
15:19 7.6 °C 4.7 °C 1010.7 hPa OSO 8.6 km/h 15.6 km/h 81.9% 0.0 mm
15:24 7.6 °C 4.7 °C 1010.8 hPa OSO 8.7 km/h 16.1 km/h 82% 0.0 mm
15:29 7.7 °C 4.8 °C 1010.8 hPa OSO 8.7 km/h 13 km/h 82% 0.0 mm
15:34 7.7 °C 4.8 °C 1010.8 hPa Oeste 8.7 km/h 12.9 km/h 82% 0.0 mm
15:39 7.7 °C 4.8 °C 1010.9 hPa OSO 7.6 km/h 13 km/h 82% 0.0 mm
15:44 7.8 °C 4.9 °C 1010.9 hPa OSO 6.9 km/h 13.7 km/h 82% 0.0 mm
15:49 7.8 °C 4.9 °C 1010.9 hPa OSO 7.4 km/h 14.5 km/h 82% 0.0 mm
15:54 7.8 °C 4.9 °C 1010.9 hPa OSO 7.6 km/h 12.9 km/h 81.7% 0.0 mm
15:59 7.8 °C 4.8 °C 1010.8 hPa OSO 6.8 km/h 9.7 km/h 81% 0.0 mm
16:04 7.9 °C 4.8 °C 1010.8 hPa SO 6.5 km/h 9.7 km/h 81% 0.0 mm
16:09 8 °C 4.9 °C 1011.1 hPa Oeste 5.5 km/h 9.7 km/h 81% 0.0 mm
16:14 8.1 °C 5.1 °C 1011.1 hPa OSO 5 km/h 8 km/h 81% 0.0 mm
16:19 8.2 °C 5 °C 1011.1 hPa SO 3.9 km/h 8 km/h 80.1% 0.0 mm
16:24 8.2 °C 4.9 °C 1011.2 hPa SO 3.2 km/h 8.4 km/h 80% 0.0 mm
16:29 8.2 °C 4.9 °C 1011.2 hPa OSO 4.1 km/h 8.4 km/h 80% 0.0 mm
16:34 8.3 °C 5 °C 1011.2 hPa SO 4.7 km/h 11.1 km/h 80% 0.0 mm
16:39 8.3 °C 5 °C 1011.3 hPa SO 5.4 km/h 11.9 km/h 80% 0.0 mm
16:44 8.2 °C 5 °C 1011.3 hPa SO 5.8 km/h 11.3 km/h 80% 0.0 mm
16:49 8.3 °C 5.1 °C 1011.3 hPa SO 6.2 km/h 9.7 km/h 80.2% 0.0 mm
16:54 8.3 °C 5.2 °C 1011.4 hPa SO 6.5 km/h 9.7 km/h 81% 0.0 mm
16:59 8.3 °C 5.2 °C 1011.4 hPa SSO 4.7 km/h 8 km/h 81% 0.0 mm
17:04 8.3 °C 5.2 °C 1011.4 hPa OSO 3.9 km/h 8 km/h 81% 0.0 mm
17:09 8.3 °C 5.2 °C 1011.7 hPa SO 3.4 km/h 9.3 km/h 81% 0.0 mm
17:14 8.2 °C 5.1 °C 1011.7 hPa SSO 3.2 km/h 9.7 km/h 81.1% 0.0 mm
17:19 8.2 °C 5.3 °C 1011.7 hPa SSO 4.3 km/h 9.7 km/h 81.9% 0.0 mm
17:24 8.1 °C 5.3 °C 1011.8 hPa SSO 5 km/h 10 km/h 82% 0.0 mm
17:29 8.1 °C 5.2 °C 1011.8 hPa Sur 5.5 km/h 9.7 km/h 82% 0.0 mm
17:34 8.1 °C 5.2 °C 1011.8 hPa Sur 5.8 km/h 8 km/h 82% 0.0 mm
17:39 8.1 °C 5.2 °C 1011.9 hPa Sur 5.1 km/h 8 km/h 82% 0.0 mm
17:44 8.1 °C 5.2 °C 1011.9 hPa SSE 4.7 km/h 8 km/h 82% 0.0 mm
17:49 8.1 °C 5.2 °C 1011.9 hPa SSE 4.1 km/h 8 km/h 82% 0.0 mm
17:54 8.1 °C 5.2 °C 1012.1 hPa SSE 3.9 km/h 8 km/h 82% 0.0 mm
17:59 8.1 °C 5.2 °C 1012.1 hPa SSE 3.4 km/h 7.4 km/h 82% 0.0 mm
18:04 8.1 °C 5.2 °C 1012.1 hPa SSE 3.2 km/h 8 km/h 82% 0.0 mm
18:09 8.1 °C 5.3 °C 1012.1 hPa SSE 3.6 km/h 7.4 km/h 82.7% 0.0 mm
18:14 8.1 °C 5.4 °C 1012.1 hPa SE 3.9 km/h 8 km/h 83% 0.0 mm
18:19 8.1 °C 5.4 °C 1012.1 hPa SSE 4.6 km/h 8 km/h 83% 0.0 mm
18:24 8 °C 5.3 °C 1012.2 hPa SSE 5 km/h 8 km/h 83% 0.0 mm
18:29 8 °C 5.3 °C 1012.2 hPa SSE 4.8 km/h 8 km/h 83% 0.0 mm
18:34 7.9 °C 5.2 °C 1012.2 hPa Sur 4.7 km/h 7.4 km/h 83% 0.0 mm
18:39 7.9 °C 5.2 °C 1012.4 hPa Sur 4.7 km/h 7.4 km/h 83% 0.0 mm
18:44 7.9 °C 5.2 °C 1012.4 hPa SSE 4.7 km/h 7.4 km/h 83% 0.0 mm
18:49 7.9 °C 5.2 °C 1012.4 hPa Sur 4.7 km/h 8 km/h 83% 0.0 mm
18:54 7.9 °C 5.2 °C 1012.4 hPa Sur 4.7 km/h 6.4 km/h 83% 0.0 mm
18:59 7.9 °C 5.2 °C 1012.4 hPa Sur 3.7 km/h 4.8 km/h 83% 0.0 mm
19:04 7.9 °C 5.2 °C 1012.4 hPa Sur 3.2 km/h 5 km/h 83.1% 0.0 mm
19:09 7.9 °C 5.4 °C 1012.6 hPa Sur 2.6 km/h 7.4 km/h 84% 0.0 mm
19:14 7.9 °C 5.4 °C 1012.6 hPa SSO 2.2 km/h 8 km/h 84% 0.0 mm
19:19 7.9 °C 5.4 °C 1012.6 hPa SSO 3.8 km/h 8 km/h 84% 0.0 mm
19:24 7.9 °C 5.4 °C 1012.9 hPa SO 4.7 km/h 11.9 km/h 84% 0.0 mm
19:29 7.9 °C 5.4 °C 1012.9 hPa OSO 4.7 km/h 8.4 km/h 84% 0.0 mm
19:34 7.8 °C 5.3 °C 1012.9 hPa OSO 4.7 km/h 9.3 km/h 84% 0.0 mm
19:39 7.7 °C 5.2 °C 1012.9 hPa SO 4.9 km/h 9.7 km/h 84% 0.0 mm
19:44 7.6 °C 5.1 °C 1012.9 hPa SO 5 km/h 9.7 km/h 84% 0.0 mm
19:49 7.6 °C 5 °C 1012.9 hPa SSO 5 km/h 9.7 km/h 84% 0.0 mm
19:54 7.6 °C 5.1 °C 1013.2 hPa Sur 5 km/h 8 km/h 84.5% 0.0 mm
19:59 7.6 °C 5.2 °C 1013.2 hPa Sur 5 km/h 10 km/h 85% 0.0 mm
20:04 7.6 °C 5.2 °C 1013.2 hPa SSO 5 km/h 9.7 km/h 85.1% 0.0 mm
20:09 7.6 °C 5.4 °C 1013.4 hPa SSO 5 km/h 8 km/h 86% 0.0 mm
20:14 7.6 °C 5.4 °C 1013.4 hPa Sur 5 km/h 8 km/h 86% 0.0 mm
20:19 7.6 °C 5.4 °C 1013.4 hPa SSO 4.8 km/h 8 km/h 86% 0.0 mm
20:24 7.6 °C 5.4 °C 1013.6 hPa SSO 4.7 km/h 9.5 km/h 86% 0.0 mm
20:29 7.6 °C 5.4 °C 1013.6 hPa SSO 4.9 km/h 9.7 km/h 86% 0.0 mm
20:34 7.5 °C 5.3 °C 1013.6 hPa SO 5 km/h 9.7 km/h 86% 0.0 mm
20:39 7.5 °C 5.3 °C 1013.7 hPa SO 3.8 km/h 8 km/h 86% 0.0 mm
20:44 7.4 °C 5.2 °C 1013.7 hPa SO 3.2 km/h 5.8 km/h 86% 0.0 mm
20:49 7.3 °C 5.3 °C 1013.7 hPa SO 3.2 km/h 7.4 km/h 86.4% 0.0 mm
20:54 7.3 °C 5.3 °C 1013.8 hPa SO 3.2 km/h 8 km/h 87% 0.0 mm
20:59 7.2 °C 5.2 °C 1013.8 hPa SO 4.2 km/h 8 km/h 87% 0.0 mm
21:04 7.2 °C 5.2 °C 1013.8 hPa SSO 4.7 km/h 8 km/h 87% 0.0 mm
21:09 7.2 °C 5.2 °C 1014.0 hPa SSO 4.1 km/h 4.8 km/h 87% 0.0 mm
21:14 7.1 °C 5.1 °C 1014.0 hPa SSO 3.9 km/h 7.6 km/h 87% 0.0 mm
21:19 7.1 °C 5.1 °C 1014.0 hPa SSE 3.4 km/h 8 km/h 87% 0.0 mm
21:24 7.1 °C 5 °C 1014.1 hPa SSE 3.2 km/h 7.6 km/h 87% 0.0 mm
21:29 6.9 °C 4.9 °C 1014.1 hPa SO 4.2 km/h 8 km/h 87% 0.0 mm
21:34 6.9 °C 5 °C 1014.1 hPa OSO 4.7 km/h 6.4 km/h 87.6% 0.0 mm
21:39 6.8 °C 5 °C 1014.2 hPa OSO 3.5 km/h 5.8 km/h 88% 0.0 mm
21:44 6.8 °C 4.9 °C 1014.2 hPa OSO 2.9 km/h 6.4 km/h 88% 0.0 mm
21:49 6.8 °C 4.9 °C 1014.2 hPa OSO 3.1 km/h 7.4 km/h 88% 0.0 mm
21:54 6.7 °C 4.8 °C 1014.3 hPa OSO 3.2 km/h 8 km/h 88% 0.0 mm
21:59 6.7 °C 4.8 °C 1014.3 hPa OSO 3.2 km/h 6.4 km/h 88% 0.0 mm
22:04 6.6 °C 4.8 °C 1014.3 hPa OSO 3.2 km/h 5.6 km/h 88.1% 0.0 mm
22:09 6.5 °C 4.8 °C 1014.5 hPa OSO 3.2 km/h 5.6 km/h 89% 0.0 mm
22:14 6.4 °C 4.7 °C 1014.5 hPa OSO 3.2 km/h 5.8 km/h 89% 0.0 mm
22:19 6.4 °C 4.7 °C 1014.5 hPa SO 3.6 km/h 7.6 km/h 89% 0.0 mm
22:24 6.3 °C 4.7 °C 1014.7 hPa Sur 3.9 km/h 8 km/h 89% 0.0 mm
22:29 6.3 °C 4.6 °C 1014.7 hPa SSO 4.5 km/h 11.1 km/h 89.2% 0.0 mm
22:34 6.3 °C 4.8 °C 1014.7 hPa SSO 5 km/h 13 km/h 90% 0.0 mm
22:39 6.3 °C 4.7 °C 1014.7 hPa OSO 6.2 km/h 12.9 km/h 89.6% 0.0 mm
22:44 6.3 °C 4.6 °C 1014.7 hPa SO 6.9 km/h 8 km/h 89.2% 0.0 mm
22:49 6.3 °C 4.8 °C 1014.7 hPa SSO 5.6 km/h 9.3 km/h 89.9% 0.0 mm
22:54 6.4 °C 4.7 °C 1014.9 hPa SO 5 km/h 9.7 km/h 89% 0.0 mm
22:59 6.4 °C 4.7 °C 1014.9 hPa SO 3.8 km/h 6.4 km/h 89% 0.0 mm
23:04 6.4 °C 4.7 °C 1014.9 hPa SO 3.2 km/h 8 km/h 89% 0.0 mm
23:09 6.5 °C 4.7 °C 1014.9 hPa SO 4.1 km/h 8.4 km/h 88.4% 0.0 mm
23:14 6.5 °C 4.7 °C 1014.9 hPa SO 4.7 km/h 8 km/h 88% 0.0 mm
23:19 6.5 °C 4.7 °C 1014.9 hPa SSO 4.7 km/h 8 km/h 88% 0.0 mm
23:24 6.5 °C 4.7 °C 1015.0 hPa Sur 4.7 km/h 7.4 km/h 88% 0.0 mm
23:29 6.6 °C 4.8 °C 1015.0 hPa Sur 4.7 km/h 7.4 km/h 88% 0.0 mm
23:34 6.6 °C 4.8 °C 1015.0 hPa SO 4.7 km/h 7.4 km/h 88% 0.0 mm
23:39 6.6 °C 4.8 °C 1015.0 hPa SO 3.7 km/h 6.4 km/h 88% 0.0 mm
23:44 6.6 °C 4.7 °C 1015.0 hPa SO 3.2 km/h 4.8 km/h 88% 0.0 mm
23:46 6.5 °C 4.7 °C 1015.0 hPa SO 3.2 km/h 3.2 km/h 88% 0.0 mm
Murcia-Puente Tocinos, Espa?a
Compliments of Weather Underground - 3 mb

La estación de MeteoMurcia.com, publica sus datos en los siguientes proyectos:

Weather Underground PWS IMURCIAP2 Meteoclimatic www.awekas.at

W3Counter
Web Analytics